Main page
METAR-TAF:

METAR-TAF

Airports :

Kimble County Airport

Junction, Texas, United States

latitude: 30-30-39N, longitude: 099-45-59W, elevation: 1729 ft

Current weather observation

The report was made 33 minutes ago, at 12:51 UTC
Wind 3 mph from the West/Southwest
Temperature 34°F
Humidity 86%
Pressure 30.19 in. Hg
Visibility: 7 miles
Clear sky

METAR: KJCT 241251Z AUTO 25003KT 7SM CLR 01/M01 A3019 RMK AO2 SLP208 T00061006

Time: 07:24 (13:24 UTC)

Forecast

The report was made 1 hour and 59 minutes ago, at 11:25 UTC
Forecast valid from 24 at 12 UTC to 25 at 12 UTC
Wind 5 mph from variable directions
Visibility: 6 miles
Clear sky
From 24 at 1900 UTC
Wind 7 mph from the South
Visibility: 6 miles
Clear sky

TAF: KJCT 241125Z 2412/2512 VRB04KT P6SM SKC FM241900 17006KT P6SM SKC

Weather observations and forecasts of more than 4000 airports (METAR and TAF reports).

The available stations are represented by yellow and red dots on the map.

Hover mouse over dot to see the name of the station.

Then click to see weather observations and forecasts.

To change the map : click on the green buttons with a black cross to zoom in, on the green button with a dash to zoom out, or on the green arrows for adjacent maps.


METAR-TAF: